JIA5523 KIND-KDCA
Flight info
| Callsign | JIA5523 |
|---|---|
| Flight time | 1h 16m |
| Altitude | 37000 |
| Route | MAREO5 BDOCK APE J30 BUCKO FRDMM6 |
| Aircraft | CRJ7/M-SDFGIRWY/S |
Departure
| Time | 2026-04-24 06:31 |
|---|---|
| Airport | Indianapolis International Airport (KIND) |
Arrival
| Time | 2026-04-24 07:48 |
|---|---|
| Airport | Ronald Reagan Washington National Airport (KDCA) |
| Time | Latitude | Longitude | Altitude | Speed | Heading |
|---|---|---|---|---|---|
| 2026-04-24 06:01 | 39.71690 | -86.29702 | 785 ft | 0 kts | 303° |
| 2026-04-24 06:20 | 39.71678 | -86.29678 | 785 ft | 4 kts | 303° |
| 2026-04-24 06:20 | 39.71663 | -86.29648 | 785 ft | 4 kts | 303° |
| 2026-04-24 06:20 | 39.71660 | -86.29641 | 785 ft | 0 kts | 303° |
| 2026-04-24 06:25 | 39.71663 | -86.29646 | 785 ft | 1 kts | 322° |
| 2026-04-24 06:25 | 39.71670 | -86.29649 | 785 ft | 1 kts | 356° |
| 2026-04-24 06:25 | 39.71678 | -86.29644 | 785 ft | 2 kts | 43° |
| 2026-04-24 06:25 | 39.71692 | -86.29619 | 785 ft | 7 kts | 56° |
| 2026-04-24 06:26 | 39.71721 | -86.29566 | 785 ft | 0 kts | 53° |
| 2026-04-24 06:26 | 39.71725 | -86.29558 | 785 ft | 4 kts | 52° |
| 2026-04-24 06:26 | 39.71758 | -86.29520 | 785 ft | 9 kts | 39° |
| 2026-04-24 06:27 | 39.71818 | -86.29457 | 785 ft | 13 kts | 39° |
| 2026-04-24 06:27 | 39.71893 | -86.29475 | 785 ft | 13 kts | 313° |
| 2026-04-24 06:27 | 39.71957 | -86.29576 | 784 ft | 17 kts | 309° |
| 2026-04-24 06:27 | 39.72034 | -86.29681 | 784 ft | 13 kts | 343° |
| 2026-04-24 06:28 | 39.72123 | -86.29622 | 782 ft | 15 kts | 40° |
| 2026-04-24 06:28 | 39.72209 | -86.29638 | 779 ft | 16 kts | 315° |
| 2026-04-24 06:28 | 39.72285 | -86.29686 | 777 ft | 12 kts | 41° |
| 2026-04-24 06:28 | 39.72349 | -86.29602 | 777 ft | 14 kts | 44° |
| 2026-04-24 06:29 | 39.72423 | -86.29509 | 776 ft | 16 kts | 45° |
| 2026-04-24 06:29 | 39.72509 | -86.29399 | 775 ft | 17 kts | 45° |
| 2026-04-24 06:29 | 39.72588 | -86.29298 | 778 ft | 16 kts | 44° |
| 2026-04-24 06:29 | 39.72671 | -86.29193 | 778 ft | 13 kts | 44° |
| 2026-04-24 06:30 | 39.72729 | -86.29184 | 779 ft | 10 kts | 321° |
| 2026-04-24 06:30 | 39.72766 | -86.29230 | 779 ft | 7 kts | 315° |
| 2026-04-24 06:30 | 39.72807 | -86.29289 | 777 ft | 10 kts | 286° |
| 2026-04-24 06:30 | 39.72757 | -86.29384 | 776 ft | 20 kts | 224° |
| 2026-04-24 06:31 | 39.72501 | -86.29711 | 775 ft | 87 kts | 225° |
| 2026-04-24 06:31 | 39.71909 | -86.30463 | 775 ft | 148 kts | 224° |
| 2026-04-24 06:31 | 39.71117 | -86.31506 | 1174 ft | 164 kts | 226° |
| 2026-04-24 06:31 | 39.70418 | -86.32542 | 2236 ft | 147 kts | 229° |
| 2026-04-24 06:32 | 39.69792 | -86.33549 | 3140 ft | 147 kts | 230° |
| 2026-04-24 06:32 | 39.69078 | -86.34741 | 3402 ft | 186 kts | 230° |
| 2026-04-24 06:32 | 39.68162 | -86.36075 | 3958 ft | 210 kts | 217° |
| 2026-04-24 06:32 | 39.66859 | -86.37150 | 4544 ft | 234 kts | 212° |
| 2026-04-24 06:33 | 39.65393 | -86.38262 | 4833 ft | 248 kts | 211° |
| 2026-04-24 06:33 | 39.63901 | -86.39369 | 4940 ft | 247 kts | 211° |
| 2026-04-24 06:33 | 39.62406 | -86.40453 | 4983 ft | 250 kts | 210° |
| 2026-04-24 06:33 | 39.60874 | -86.41542 | 4999 ft | 252 kts | 210° |
| 2026-04-24 06:34 | 39.59219 | -86.42285 | 5002 ft | 258 kts | 185° |
| 2026-04-24 06:34 | 39.57471 | -86.41647 | 5035 ft | 273 kts | 151° |
| 2026-04-24 06:34 | 39.56251 | -86.39739 | 5173 ft | 284 kts | 115° |
| 2026-04-24 06:34 | 39.56051 | -86.37183 | 6009 ft | 295 kts | 82° |
| 2026-04-24 06:35 | 39.56728 | -86.34658 | 6844 ft | 298 kts | 68° |
| 2026-04-24 06:35 | 39.57507 | -86.32198 | 7640 ft | 300 kts | 71° |
| 2026-04-24 06:35 | 39.58209 | -86.29647 | 8439 ft | 301 kts | 72° |
| 2026-04-24 06:35 | 39.58905 | -86.27083 | 9283 ft | 303 kts | 71° |
| 2026-04-24 06:36 | 39.59627 | -86.24512 | 10067 ft | 304 kts | 70° |
| 2026-04-24 06:36 | 39.60382 | -86.21926 | 10610 ft | 315 kts | 70° |
| 2026-04-24 06:36 | 39.61184 | -86.19181 | 10844 ft | 335 kts | 69° |
| 2026-04-24 06:36 | 39.62031 | -86.16285 | 11139 ft | 352 kts | 69° |
| 2026-04-24 06:37 | 39.62905 | -86.13284 | 11707 ft | 358 kts | 69° |
| 2026-04-24 06:37 | 39.63778 | -86.10287 | 12367 ft | 361 kts | 69° |
| 2026-04-24 06:37 | 39.64669 | -86.07226 | 13036 ft | 365 kts | 69° |
| 2026-04-24 06:37 | 39.65569 | -86.04127 | 13710 ft | 368 kts | 69° |
| 2026-04-24 06:38 | 39.66476 | -86.01009 | 14328 ft | 371 kts | 69° |
| 2026-04-24 06:38 | 39.67387 | -85.97861 | 14941 ft | 373 kts | 68° |
| 2026-04-24 06:38 | 39.68305 | -85.94696 | 15542 ft | 376 kts | 68° |
| 2026-04-24 06:38 | 39.69225 | -85.91513 | 16128 ft | 378 kts | 68° |
| 2026-04-24 06:39 | 39.70151 | -85.88307 | 16702 ft | 380 kts | 68° |
| 2026-04-24 06:39 | 39.71068 | -85.85127 | 17258 ft | 382 kts | 68° |
| 2026-04-24 06:39 | 39.72003 | -85.81879 | 17806 ft | 385 kts | 68° |
| 2026-04-24 06:39 | 39.72941 | -85.78614 | 18312 ft | 387 kts | 68° |
| 2026-04-24 06:40 | 39.73889 | -85.75327 | 18759 ft | 390 kts | 68° |
| 2026-04-24 06:40 | 39.74838 | -85.72015 | 19190 ft | 393 kts | 68° |
| 2026-04-24 06:40 | 39.75795 | -85.68675 | 19613 ft | 396 kts | 68° |
| 2026-04-24 06:40 | 39.76758 | -85.65308 | 20033 ft | 399 kts | 68° |
| 2026-04-24 06:41 | 39.77712 | -85.61960 | 20432 ft | 402 kts | 68° |
| 2026-04-24 06:41 | 39.78685 | -85.58547 | 20840 ft | 404 kts | 68° |
| 2026-04-24 06:41 | 39.79669 | -85.55107 | 21234 ft | 407 kts | 68° |
| 2026-04-24 06:41 | 39.80654 | -85.51644 | 21618 ft | 410 kts | 68° |
| 2026-04-24 06:42 | 39.81647 | -85.48154 | 21992 ft | 413 kts | 68° |
| 2026-04-24 06:42 | 39.82643 | -85.44640 | 22357 ft | 415 kts | 68° |
| 2026-04-24 06:42 | 39.83646 | -85.41105 | 22719 ft | 418 kts | 68° |
| 2026-04-24 06:42 | 39.84658 | -85.37534 | 23057 ft | 421 kts | 69° |
| 2026-04-24 06:43 | 39.85656 | -85.33993 | 23396 ft | 424 kts | 69° |
| 2026-04-24 06:43 | 39.86677 | -85.30380 | 23673 ft | 427 kts | 69° |
| 2026-04-24 06:43 | 39.87697 | -85.26745 | 23965 ft | 429 kts | 69° |
| 2026-04-24 06:43 | 39.88464 | -85.22985 | 24237 ft | 432 kts | 80° |
| 2026-04-24 06:44 | 39.88790 | -85.19085 | 24511 ft | 435 kts | 86° |
| 2026-04-24 06:44 | 39.88923 | -85.15141 | 24781 ft | 437 kts | 87° |
| 2026-04-24 06:44 | 39.89039 | -85.11178 | 25049 ft | 439 kts | 87° |
| 2026-04-24 06:44 | 39.89203 | -85.07197 | 25303 ft | 441 kts | 85° |
| 2026-04-24 06:45 | 39.89424 | -85.03259 | 25549 ft | 443 kts | 85° |
| 2026-04-24 06:45 | 39.89649 | -84.99243 | 25765 ft | 446 kts | 85° |
| 2026-04-24 06:45 | 39.89859 | -84.95205 | 26006 ft | 448 kts | 85° |
| 2026-04-24 06:45 | 39.90074 | -84.91144 | 26245 ft | 450 kts | 85° |
| 2026-04-24 06:46 | 39.90291 | -84.87075 | 26477 ft | 452 kts | 85° |
| 2026-04-24 06:46 | 39.90503 | -84.82984 | 26705 ft | 454 kts | 85° |
| 2026-04-24 06:46 | 39.90717 | -84.78877 | 26929 ft | 455 kts | 85° |
| 2026-04-24 06:46 | 39.90931 | -84.74754 | 27147 ft | 457 kts | 85° |
| 2026-04-24 06:47 | 39.91142 | -84.70615 | 27376 ft | 459 kts | 85° |
| 2026-04-24 06:47 | 39.91354 | -84.66518 | 27599 ft | 460 kts | 85° |
| 2026-04-24 06:47 | 39.91564 | -84.62345 | 27748 ft | 463 kts | 85° |
| 2026-04-24 06:47 | 39.91774 | -84.58154 | 27940 ft | 465 kts | 85° |
| 2026-04-24 06:48 | 39.91984 | -84.53945 | 28132 ft | 466 kts | 85° |
| 2026-04-24 06:48 | 39.92191 | -84.49730 | 28321 ft | 468 kts | 85° |
| 2026-04-24 06:48 | 39.92400 | -84.45489 | 28509 ft | 469 kts | 85° |
| 2026-04-24 06:48 | 39.92608 | -84.41238 | 28695 ft | 471 kts | 85° |
| 2026-04-24 06:49 | 39.92814 | -84.36975 | 28897 ft | 473 kts | 85° |
| 2026-04-24 06:49 | 39.93018 | -84.32751 | 29069 ft | 474 kts | 85° |
| 2026-04-24 06:49 | 39.93223 | -84.28452 | 29243 ft | 476 kts | 86° |
| 2026-04-24 06:49 | 39.93427 | -84.24137 | 29348 ft | 478 kts | 85° |
| 2026-04-24 06:50 | 39.93815 | -84.19829 | 29498 ft | 479 kts | 79° |
| 2026-04-24 06:50 | 39.94461 | -84.15564 | 29649 ft | 480 kts | 77° |
| 2026-04-24 06:50 | 39.95163 | -84.11299 | 29807 ft | 482 kts | 77° |
| 2026-04-24 06:50 | 39.95819 | -84.07013 | 29949 ft | 483 kts | 78° |
| 2026-04-24 06:51 | 39.96405 | -84.02692 | 30073 ft | 485 kts | 79° |
| 2026-04-24 06:51 | 39.96983 | -83.98448 | 30426 ft | 479 kts | 79° |
| 2026-04-24 06:51 | 39.97567 | -83.94182 | 30674 ft | 478 kts | 79° |
| 2026-04-24 06:51 | 39.98146 | -83.89926 | 30873 ft | 477 kts | 79° |
| 2026-04-24 06:52 | 39.98725 | -83.85657 | 30984 ft | 478 kts | 79° |
| 2026-04-24 06:52 | 39.99304 | -83.81387 | 31157 ft | 478 kts | 79° |
| 2026-04-24 06:52 | 39.99878 | -83.77122 | 31350 ft | 477 kts | 79° |
| 2026-04-24 06:52 | 40.00450 | -83.72864 | 31537 ft | 476 kts | 79° |
| 2026-04-24 06:53 | 40.01021 | -83.68615 | 31728 ft | 475 kts | 79° |
| 2026-04-24 06:53 | 40.01578 | -83.64429 | 31906 ft | 475 kts | 79° |
| 2026-04-24 06:53 | 40.02143 | -83.60188 | 32084 ft | 474 kts | 79° |
| 2026-04-24 06:53 | 40.02708 | -83.55954 | 32254 ft | 473 kts | 79° |
| 2026-04-24 06:54 | 40.03266 | -83.51724 | 32389 ft | 473 kts | 79° |
| 2026-04-24 06:54 | 40.04391 | -83.43221 | 32532 ft | 475 kts | 79° |
| 2026-04-24 06:54 | 40.04950 | -83.38971 | 32677 ft | 475 kts | 79° |
| 2026-04-24 06:55 | 40.05496 | -83.34778 | 32826 ft | 474 kts | 79° |
| 2026-04-24 06:55 | 40.06048 | -83.30540 | 32995 ft | 473 kts | 79° |
| 2026-04-24 06:55 | 40.06596 | -83.26320 | 33267 ft | 470 kts | 78° |
| 2026-04-24 06:55 | 40.07142 | -83.22127 | 33463 ft | 468 kts | 78° |
| 2026-04-24 06:56 | 40.07687 | -83.17946 | 33602 ft | 467 kts | 78° |
| 2026-04-24 06:56 | 40.08225 | -83.13771 | 33747 ft | 467 kts | 78° |
| 2026-04-24 06:56 | 40.08764 | -83.09576 | 33799 ft | 469 kts | 78° |
| 2026-04-24 06:56 | 40.09304 | -83.05382 | 33924 ft | 468 kts | 78° |
| 2026-04-24 06:57 | 40.09840 | -83.01194 | 34049 ft | 467 kts | 78° |
| 2026-04-24 06:57 | 40.10897 | -82.92881 | 34248 ft | 467 kts | 78° |
| 2026-04-24 06:57 | 40.11429 | -82.88700 | 34357 ft | 466 kts | 78° |
| 2026-04-24 06:58 | 40.11955 | -82.84524 | 34441 ft | 466 kts | 78° |
| 2026-04-24 06:58 | 40.12480 | -82.80356 | 34556 ft | 465 kts | 78° |
| 2026-04-24 06:58 | 40.13003 | -82.76188 | 34632 ft | 465 kts | 78° |
| 2026-04-24 06:59 | 40.14051 | -82.67834 | 34731 ft | 466 kts | 78° |
| 2026-04-24 06:59 | 40.14295 | -82.63597 | 34768 ft | 470 kts | 91° |
| 2026-04-24 06:59 | 40.13895 | -82.59356 | 34875 ft | 471 kts | 98° |
| 2026-04-24 07:00 | 40.12671 | -82.50997 | 34916 ft | 472 kts | 101° |
| 2026-04-24 07:00 | 40.10573 | -82.42879 | 34936 ft | 473 kts | 112° |
| 2026-04-24 07:01 | 40.08005 | -82.34973 | 34938 ft | 473 kts | 111° |
| 2026-04-24 07:01 | 40.05628 | -82.26960 | 34950 ft | 473 kts | 110° |
| 2026-04-24 07:02 | 40.03251 | -82.19008 | 34944 ft | 474 kts | 110° |
| 2026-04-24 07:02 | 40.00852 | -82.11002 | 34954 ft | 474 kts | 110° |
| 2026-04-24 07:03 | 39.98448 | -82.02996 | 34962 ft | 474 kts | 110° |
| 2026-04-24 07:03 | 39.96038 | -81.94989 | 34961 ft | 474 kts | 111° |
| 2026-04-24 07:04 | 39.93627 | -81.87048 | 34963 ft | 475 kts | 111° |
| 2026-04-24 07:04 | 39.91211 | -81.79039 | 34960 ft | 475 kts | 111° |
| 2026-04-24 07:05 | 39.88772 | -81.71031 | 34959 ft | 475 kts | 111° |
| 2026-04-24 07:05 | 39.86341 | -81.63085 | 34974 ft | 476 kts | 111° |
| 2026-04-24 07:06 | 39.83907 | -81.55072 | 34935 ft | 476 kts | 111° |
| 2026-04-24 07:06 | 39.81445 | -81.47065 | 34938 ft | 477 kts | 111° |
| 2026-04-24 07:07 | 39.78977 | -81.39050 | 34937 ft | 477 kts | 111° |
| 2026-04-24 07:07 | 39.75284 | -81.27090 | 34947 ft | 478 kts | 111° |
| 2026-04-24 07:08 | 39.72801 | -81.19075 | 34941 ft | 478 kts | 111° |
| 2026-04-24 07:08 | 39.70312 | -81.11059 | 34938 ft | 479 kts | 111° |
| 2026-04-24 07:09 | 39.67811 | -81.03044 | 34925 ft | 479 kts | 112° |
| 2026-04-24 07:09 | 39.65319 | -80.95081 | 34941 ft | 480 kts | 112° |
| 2026-04-24 07:10 | 39.62803 | -80.87053 | 34945 ft | 481 kts | 111° |
| 2026-04-24 07:10 | 39.60706 | -80.80371 | 34947 ft | 482 kts | 112° |
| 2026-04-24 07:11 | 39.57750 | -80.71015 | 34942 ft | 483 kts | 112° |
| 2026-04-24 07:11 | 39.55207 | -80.62947 | 34943 ft | 484 kts | 112° |
| 2026-04-24 07:12 | 39.53076 | -80.56238 | 34932 ft | 485 kts | 112° |
| 2026-04-24 07:12 | 39.50503 | -80.48158 | 34936 ft | 486 kts | 112° |
| 2026-04-24 07:13 | 39.47503 | -80.38754 | 34937 ft | 486 kts | 112° |
| 2026-04-24 07:13 | 39.44916 | -80.30664 | 34942 ft | 487 kts | 112° |
| 2026-04-24 07:14 | 39.42753 | -80.23934 | 34946 ft | 488 kts | 112° |
| 2026-04-24 07:14 | 39.40148 | -80.15830 | 34967 ft | 488 kts | 112° |
| 2026-04-24 07:15 | 39.38837 | -80.11771 | 34656 ft | 490 kts | 112° |
| 2026-04-24 07:15 | 39.37521 | -80.07688 | 34067 ft | 493 kts | 112° |
| 2026-04-24 07:15 | 39.36197 | -80.03589 | 33513 ft | 495 kts | 112° |
| 2026-04-24 07:15 | 39.34863 | -79.99485 | 32968 ft | 496 kts | 112° |
| 2026-04-24 07:16 | 39.33547 | -79.95428 | 32425 ft | 497 kts | 112° |
| 2026-04-24 07:16 | 39.32209 | -79.91312 | 31901 ft | 498 kts | 112° |
| 2026-04-24 07:16 | 39.30866 | -79.87188 | 31425 ft | 499 kts | 112° |
| 2026-04-24 07:16 | 39.29603 | -79.83019 | 31093 ft | 498 kts | 105° |
| 2026-04-24 07:17 | 39.28902 | -79.78672 | 30710 ft | 493 kts | 95° |
| 2026-04-24 07:17 | 39.28583 | -79.74289 | 30241 ft | 488 kts | 91° |
| 2026-04-24 07:17 | 39.28374 | -79.69932 | 29760 ft | 485 kts | 91° |
| 2026-04-24 07:17 | 39.28123 | -79.65608 | 29289 ft | 481 kts | 93° |
| 2026-04-24 07:18 | 39.27784 | -79.61333 | 28838 ft | 477 kts | 94° |
| 2026-04-24 07:18 | 39.27433 | -79.57154 | 28394 ft | 473 kts | 94° |
| 2026-04-24 07:18 | 39.27083 | -79.52951 | 27978 ft | 469 kts | 94° |
| 2026-04-24 07:18 | 39.26746 | -79.48782 | 27560 ft | 465 kts | 94° |
| 2026-04-24 07:19 | 39.26412 | -79.44643 | 27161 ft | 462 kts | 94° |
| 2026-04-24 07:19 | 39.26074 | -79.40536 | 26752 ft | 458 kts | 94° |
| 2026-04-24 07:19 | 39.25743 | -79.36462 | 26371 ft | 455 kts | 94° |
| 2026-04-24 07:19 | 39.25416 | -79.32411 | 26008 ft | 452 kts | 94° |
| 2026-04-24 07:20 | 39.25084 | -79.28394 | 25645 ft | 449 kts | 94° |
| 2026-04-24 07:20 | 39.24759 | -79.24462 | 25287 ft | 446 kts | 95° |
| 2026-04-24 07:20 | 39.24419 | -79.20496 | 24934 ft | 443 kts | 95° |
| 2026-04-24 07:20 | 39.24078 | -79.16562 | 24597 ft | 440 kts | 95° |
| 2026-04-24 07:21 | 39.23748 | -79.12652 | 24263 ft | 437 kts | 95° |
| 2026-04-24 07:21 | 39.23417 | -79.08770 | 23941 ft | 434 kts | 95° |
| 2026-04-24 07:21 | 39.23086 | -79.04915 | 23638 ft | 431 kts | 95° |
| 2026-04-24 07:21 | 39.22761 | -79.01079 | 23275 ft | 429 kts | 95° |
| 2026-04-24 07:22 | 39.22432 | -78.97262 | 22921 ft | 427 kts | 95° |
| 2026-04-24 07:22 | 39.22085 | -78.93521 | 22604 ft | 424 kts | 96° |
| 2026-04-24 07:22 | 39.21711 | -78.89762 | 22296 ft | 422 kts | 96° |
| 2026-04-24 07:22 | 39.21350 | -78.86030 | 22089 ft | 416 kts | 96° |
| 2026-04-24 07:23 | 39.20997 | -78.82356 | 21769 ft | 414 kts | 96° |
| 2026-04-24 07:23 | 39.20639 | -78.78666 | 21381 ft | 414 kts | 96° |
| 2026-04-24 07:23 | 39.20286 | -78.74992 | 21013 ft | 411 kts | 96° |
| 2026-04-24 07:23 | 39.19924 | -78.71344 | 20654 ft | 409 kts | 97° |
| 2026-04-24 07:24 | 39.19573 | -78.67771 | 20312 ft | 406 kts | 96° |
| 2026-04-24 07:24 | 39.19217 | -78.64169 | 19966 ft | 404 kts | 96° |
| 2026-04-24 07:24 | 39.18863 | -78.60591 | 19639 ft | 401 kts | 96° |
| 2026-04-24 07:24 | 39.18512 | -78.57032 | 19326 ft | 399 kts | 97° |
| 2026-04-24 07:25 | 39.18161 | -78.53498 | 19008 ft | 397 kts | 97° |
| 2026-04-24 07:25 | 39.17808 | -78.49984 | 18708 ft | 394 kts | 97° |
| 2026-04-24 07:25 | 39.17464 | -78.46489 | 18405 ft | 392 kts | 97° |
| 2026-04-24 07:25 | 39.17118 | -78.43014 | 18101 ft | 390 kts | 97° |
| 2026-04-24 07:26 | 39.16773 | -78.39606 | 17788 ft | 387 kts | 97° |
| 2026-04-24 07:26 | 39.16395 | -78.36186 | 17466 ft | 385 kts | 101° |
| 2026-04-24 07:26 | 39.15696 | -78.32873 | 17155 ft | 382 kts | 108° |
| 2026-04-24 07:26 | 39.14822 | -78.29658 | 16755 ft | 379 kts | 110° |
| 2026-04-24 07:27 | 39.13935 | -78.26464 | 16375 ft | 376 kts | 109° |
| 2026-04-24 07:27 | 39.13083 | -78.23296 | 15992 ft | 373 kts | 108° |
| 2026-04-24 07:27 | 39.12292 | -78.20138 | 15622 ft | 370 kts | 107° |
| 2026-04-24 07:27 | 39.11511 | -78.16999 | 15258 ft | 367 kts | 108° |
| 2026-04-24 07:28 | 39.10743 | -78.13927 | 14909 ft | 364 kts | 108° |
| 2026-04-24 07:28 | 39.09971 | -78.10844 | 14548 ft | 361 kts | 107° |
| 2026-04-24 07:28 | 39.09217 | -78.07773 | 14237 ft | 358 kts | 107° |
| 2026-04-24 07:28 | 39.08463 | -78.04732 | 13951 ft | 356 kts | 107° |
| 2026-04-24 07:29 | 39.07698 | -78.01714 | 13665 ft | 354 kts | 108° |
| 2026-04-24 07:29 | 39.06931 | -77.98726 | 13431 ft | 347 kts | 108° |
| 2026-04-24 07:29 | 39.06183 | -77.95821 | 13360 ft | 337 kts | 108° |
| 2026-04-24 07:29 | 39.05461 | -77.93036 | 13225 ft | 328 kts | 108° |
| 2026-04-24 07:30 | 39.04754 | -77.90292 | 13092 ft | 318 kts | 107° |
| 2026-04-24 07:30 | 39.04068 | -77.87615 | 12791 ft | 314 kts | 107° |
| 2026-04-24 07:30 | 39.03387 | -77.84946 | 12436 ft | 313 kts | 107° |
| 2026-04-24 07:30 | 39.02708 | -77.82290 | 12078 ft | 312 kts | 107° |
| 2026-04-24 07:31 | 39.02026 | -77.79638 | 11732 ft | 312 kts | 108° |
| 2026-04-24 07:31 | 39.01346 | -77.76999 | 11388 ft | 311 kts | 108° |
| 2026-04-24 07:31 | 39.00673 | -77.74400 | 11054 ft | 310 kts | 108° |
| 2026-04-24 07:31 | 38.99994 | -77.71782 | 10707 ft | 309 kts | 108° |
| 2026-04-24 07:32 | 38.99312 | -77.69157 | 10363 ft | 309 kts | 108° |
| 2026-04-24 07:32 | 38.98634 | -77.66543 | 10026 ft | 308 kts | 108° |
| 2026-04-24 07:32 | 38.97897 | -77.63962 | 9664 ft | 307 kts | 112° |
| 2026-04-24 07:32 | 38.97042 | -77.61453 | 9305 ft | 306 kts | 115° |
| 2026-04-24 07:33 | 38.96141 | -77.58984 | 8921 ft | 304 kts | 115° |
| 2026-04-24 07:33 | 38.95252 | -77.56510 | 8530 ft | 304 kts | 115° |
| 2026-04-24 07:33 | 38.94385 | -77.54069 | 8248 ft | 307 kts | 115° |
| 2026-04-24 07:33 | 38.93501 | -77.51549 | 8125 ft | 311 kts | 115° |
| 2026-04-24 07:34 | 38.92606 | -77.49015 | 8062 ft | 312 kts | 115° |
| 2026-04-24 07:34 | 38.91717 | -77.46476 | 8049 ft | 312 kts | 115° |
| 2026-04-24 07:34 | 38.90799 | -77.43966 | 8036 ft | 307 kts | 118° |
| 2026-04-24 07:34 | 38.89781 | -77.41590 | 7839 ft | 303 kts | 121° |
| 2026-04-24 07:35 | 38.88726 | -77.39276 | 7584 ft | 298 kts | 121° |
| 2026-04-24 07:35 | 38.87697 | -77.37015 | 7278 ft | 297 kts | 121° |
| 2026-04-24 07:35 | 38.86661 | -77.34733 | 6961 ft | 295 kts | 121° |
| 2026-04-24 07:35 | 38.85648 | -77.32452 | 6594 ft | 293 kts | 121° |
| 2026-04-24 07:36 | 38.84648 | -77.30184 | 6281 ft | 289 kts | 121° |
| 2026-04-24 07:36 | 38.83675 | -77.27972 | 6103 ft | 279 kts | 121° |
| 2026-04-24 07:36 | 38.82717 | -77.25802 | 6031 ft | 283 kts | 121° |
| 2026-04-24 07:36 | 38.81734 | -77.23602 | 5993 ft | 288 kts | 121° |
| 2026-04-24 07:37 | 38.80717 | -77.21345 | 5994 ft | 293 kts | 121° |
| 2026-04-24 07:37 | 38.79698 | -77.19096 | 5995 ft | 297 kts | 121° |
| 2026-04-24 07:37 | 38.78658 | -77.16795 | 5993 ft | 300 kts | 121° |
| 2026-04-24 07:37 | 38.77610 | -77.14478 | 5992 ft | 299 kts | 121° |
| 2026-04-24 07:38 | 38.76434 | -77.12342 | 5977 ft | 288 kts | 141° |
| 2026-04-24 07:38 | 38.74694 | -77.11233 | 5988 ft | 280 kts | 171° |
| 2026-04-24 07:38 | 38.72763 | -77.10948 | 5990 ft | 280 kts | 180° |
| 2026-04-24 07:38 | 38.70864 | -77.10872 | 5994 ft | 269 kts | 182° |
| 2026-04-24 07:39 | 38.69042 | -77.10848 | 5977 ft | 254 kts | 183° |
| 2026-04-24 07:39 | 38.67314 | -77.10835 | 5923 ft | 243 kts | 183° |
| 2026-04-24 07:39 | 38.65657 | -77.10807 | 5822 ft | 236 kts | 182° |
| 2026-04-24 07:39 | 38.64018 | -77.10735 | 5554 ft | 236 kts | 181° |
| 2026-04-24 07:40 | 38.62390 | -77.10500 | 5269 ft | 237 kts | 168° |
| 2026-04-24 07:40 | 38.60801 | -77.09929 | 5009 ft | 237 kts | 166° |
| 2026-04-24 07:40 | 38.59220 | -77.09335 | 4760 ft | 236 kts | 166° |
| 2026-04-24 07:40 | 38.57608 | -77.09021 | 4465 ft | 234 kts | 180° |
| 2026-04-24 07:41 | 38.55985 | -77.08859 | 4151 ft | 236 kts | 167° |
| 2026-04-24 07:41 | 38.54626 | -77.07762 | 3811 ft | 240 kts | 127° |
| 2026-04-24 07:41 | 38.54051 | -77.05810 | 3495 ft | 236 kts | 88° |
| 2026-04-24 07:41 | 38.54508 | -77.03874 | 3254 ft | 226 kts | 48° |
| 2026-04-24 07:42 | 38.55540 | -77.02403 | 3139 ft | 219 kts | 41° |
| 2026-04-24 07:42 | 38.56764 | -77.01413 | 3080 ft | 202 kts | 8° |
| 2026-04-24 07:42 | 38.58115 | -77.01291 | 3056 ft | 191 kts | 358° |
| 2026-04-24 07:42 | 38.59458 | -77.01264 | 3036 ft | 200 kts | 356° |
| 2026-04-24 07:43 | 38.60890 | -77.01317 | 3037 ft | 210 kts | 354° |
| 2026-04-24 07:43 | 38.62354 | -77.01428 | 3040 ft | 216 kts | 353° |
| 2026-04-24 07:43 | 38.63852 | -77.01575 | 3041 ft | 216 kts | 352° |
| 2026-04-24 07:43 | 38.65345 | -77.01738 | 3038 ft | 213 kts | 351° |
| 2026-04-24 07:44 | 38.66788 | -77.01910 | 3011 ft | 208 kts | 351° |
| 2026-04-24 07:44 | 38.68235 | -77.02089 | 2994 ft | 210 kts | 351° |
| 2026-04-24 07:44 | 38.69712 | -77.02233 | 2832 ft | 219 kts | 354° |
| 2026-04-24 07:44 | 38.71234 | -77.02356 | 2516 ft | 216 kts | 352° |
| 2026-04-24 07:45 | 38.72692 | -77.02498 | 2227 ft | 204 kts | 352° |
| 2026-04-24 07:45 | 38.74045 | -77.02635 | 2007 ft | 183 kts | 351° |
| 2026-04-24 07:45 | 38.75222 | -77.02758 | 1750 ft | 163 kts | 351° |
| 2026-04-24 07:45 | 38.76358 | -77.02880 | 1523 ft | 163 kts | 350° |
| 2026-04-24 07:46 | 38.77473 | -77.03001 | 1314 ft | 160 kts | 352° |
| 2026-04-24 07:46 | 38.78560 | -77.03106 | 1085 ft | 150 kts | 351° |
| 2026-04-24 07:46 | 38.79554 | -77.03219 | 894 ft | 139 kts | 352° |
| 2026-04-24 07:46 | 38.80516 | -77.03327 | 694 ft | 141 kts | 353° |
| 2026-04-24 07:47 | 38.81524 | -77.03412 | 559 ft | 148 kts | 355° |
| 2026-04-24 07:47 | 38.82547 | -77.03514 | 370 ft | 149 kts | 354° |
| 2026-04-24 07:47 | 38.83586 | -77.03621 | 169 ft | 151 kts | 355° |
| 2026-04-24 07:47 | 38.84612 | -77.03719 | 24 ft | 138 kts | 354° |
| 2026-04-24 07:48 | 38.85370 | -77.03796 | 22 ft | 70 kts | 355° |
| 2026-04-24 07:48 | 38.85681 | -77.03828 | 22 ft | 39 kts | 355° |
| 2026-04-24 07:48 | 38.85903 | -77.03896 | 26 ft | 21 kts | 300° |
| 2026-04-24 07:48 | 38.85905 | -77.03979 | 23 ft | 8 kts | 213° |
| 2026-04-24 07:49 | 38.85851 | -77.03987 | 23 ft | 8 kts | 178° |
| 2026-04-24 07:49 | 38.85792 | -77.03981 | 24 ft | 9 kts | 175° |
| 2026-04-24 07:49 | 38.85717 | -77.03980 | 24 ft | 12 kts | 204° |
| 2026-04-24 07:49 | 38.85701 | -77.04074 | 24 ft | 13 kts | 308° |
| 2026-04-24 07:50 | 38.85779 | -77.04153 | 22 ft | 16 kts | 324° |
| 2026-04-24 07:50 | 38.85866 | -77.04239 | 25 ft | 16 kts | 322° |
| 2026-04-24 07:50 | 38.85917 | -77.04325 | 23 ft | 11 kts | 258° |
| 2026-04-24 07:50 | 38.85903 | -77.04380 | 22 ft | 1 kts | 238° |
| 2026-04-24 07:51 | 38.85900 | -77.04383 | 22 ft | 0 kts | 217° |
| 2026-04-24 07:51 | 38.85892 | -77.04388 | 23 ft | 3 kts | 199° |
| 2026-04-24 07:51 | 38.85871 | -77.04390 | 24 ft | 2 kts | 169° |
| 2026-04-24 07:51 | 38.85860 | -77.04386 | 22 ft | 1 kts | 167° |
| 2026-04-24 07:52 | 38.85856 | -77.04385 | 22 ft | 0 kts | 168° |
| 2026-04-24 07:53 | 38.85857 | -77.04386 | 22 ft | 0 kts | 167° |
| 2026-04-24 08:03 | 38.85862 | -77.04387 | 22 ft | 0 kts | 167° |
| 2026-04-24 08:04 | 38.85857 | -77.04386 | 22 ft | 0 kts | 167° |
| 2026-04-24 08:04 | 38.85862 | -77.04387 | 22 ft | 0 kts | 167° |
| 2026-04-24 08:05 | 38.85757 | -77.04255 | 23 ft | 0 kts | 317° |
| 2026-04-24 08:06 | 38.85761 | -77.04260 | 24 ft | 0 kts | 317° |
| 2026-04-24 08:06 | 38.85757 | -77.04255 | 23 ft | 0 kts | 317° |